sensor_id;sensor_type;location;lat;lon;timestamp;pressure;altitude;pressure_sealevel;temperature;humidity
22872;BME280;11603;44.910;8.630;2023-05-23T00:00:54;100393.31;;;18.75;100.00
22872;BME280;11603;44.910;8.630;2023-05-23T00:03:23;100387.34;;;18.72;100.00
22872;BME280;11603;44.910;8.630;2023-05-23T00:05:48;100387.81;;;18.67;100.00
22872;BME280;11603;44.910;8.630;2023-05-23T00:08:15;100390.66;;;18.66;100.00
22872;BME280;11603;44.910;8.630;2023-05-23T00:10:41;100388.69;;;18.58;100.00
22872;BME280;11603;44.910;8.630;2023-05-23T00:13:08;100383.03;;;18.51;100.00
22872;BME280;11603;44.910;8.630;2023-05-23T00:15:36;100384.03;;;18.50;100.00
22872;BME280;11603;44.910;8.630;2023-05-23T00:18:02;100385.88;;;18.50;100.00
22872;BME280;11603;44.910;8.630;2023-05-23T00:20:28;100386.19;;;18.47;100.00
22872;BME280;11603;44.910;8.630;2023-05-23T00:22:55;100382.63;;;18.46;100.00
22872;BME280;11603;44.910;8.630;2023-05-23T00:25:24;100385.38;;;18.37;100.00
22872;BME280;11603;44.910;8.630;2023-05-23T00:27:50;100384.97;;;18.32;100.00
22872;BME280;11603;44.910;8.630;2023-05-23T00:30:15;100388.09;;;18.37;100.00
22872;BME280;11603;44.910;8.630;2023-05-23T00:32:41;100380.66;;;18.39;100.00
22872;BME280;11603;44.910;8.630;2023-05-23T00:35:07;100382.81;;;18.35;100.00
22872;BME280;11603;44.910;8.630;2023-05-23T00:37:33;100382.09;;;18.33;100.00
22872;BME280;11603;44.910;8.630;2023-05-23T00:39:59;100379.72;;;18.30;100.00
22872;BME280;11603;44.910;8.630;2023-05-23T00:42:26;100381.41;;;18.31;100.00
22872;BME280;11603;44.910;8.630;2023-05-23T00:44:51;100382.28;;;18.32;100.00
22872;BME280;11603;44.910;8.630;2023-05-23T00:47:17;100388.69;;;18.31;100.00
22872;BME280;11603;44.910;8.630;2023-05-23T00:49:43;100382.88;;;18.26;100.00
22872;BME280;11603;44.910;8.630;2023-05-23T00:52:09;100385.72;;;18.24;100.00
22872;BME280;11603;44.910;8.630;2023-05-23T00:54:35;100386.72;;;18.23;100.00
22872;BME280;11603;44.910;8.630;2023-05-23T00:57:01;100391.28;;;18.23;100.00
22872;BME280;11603;44.910;8.630;2023-05-23T00:59:29;100392.44;;;18.20;100.00
22872;BME280;11603;44.910;8.630;2023-05-23T01:01:56;100392.72;;;18.17;100.00
22872;BME280;11603;44.910;8.630;2023-05-23T01:04:23;100387.31;;;18.17;100.00
22872;BME280;11603;44.910;8.630;2023-05-23T01:06:53;100388.63;;;18.13;100.00
22872;BME280;11603;44.910;8.630;2023-05-23T01:09:19;100390.59;;;18.11;100.00
22872;BME280;11603;44.910;8.630;2023-05-23T01:12:16;100385.19;;;18.11;100.00
22872;BME280;11603;44.910;8.630;2023-05-23T01:14:50;100397.72;;;18.12;100.00
22872;BME280;11603;44.910;8.630;2023-05-23T01:17:25;100392.75;;;18.07;100.00
22872;BME280;11603;44.910;8.630;2023-05-23T01:20:03;100391.06;;;18.06;100.00
22872;BME280;11603;44.910;8.630;2023-05-23T01:22:53;100394.63;;;18.07;100.00
22872;BME280;11603;44.910;8.630;2023-05-23T01:28:36;100383.41;;;17.92;100.00
22872;BME280;11603;44.910;8.630;2023-05-23T01:31:07;100385.13;;;17.93;100.00
22872;BME280;11603;44.910;8.630;2023-05-23T01:33:33;100380.16;;;17.89;100.00
22872;BME280;11603;44.910;8.630;2023-05-23T01:36:01;100387.00;;;17.83;100.00
22872;BME280;11603;44.910;8.630;2023-05-23T01:38:29;100383.19;;;17.76;100.00
22872;BME280;11603;44.910;8.630;2023-05-23T01:40:55;100385.03;;;17.75;100.00
22872;BME280;11603;44.910;8.630;2023-05-23T01:43:21;100385.88;;;17.76;100.00
22872;BME280;11603;44.910;8.630;2023-05-23T01:45:55;100384.88;;;17.77;100.00
22872;BME280;11603;44.910;8.630;2023-05-23T01:48:22;100385.88;;;17.76;100.00
22872;BME280;11603;44.910;8.630;2023-05-23T01:50:48;100376.78;;;17.77;100.00
22872;BME280;11603;44.910;8.630;2023-05-23T01:53:19;100385.19;;;17.74;100.00
22872;BME280;11603;44.910;8.630;2023-05-23T01:55:45;100382.31;;;17.75;100.00
22872;BME280;11603;44.910;8.630;2023-05-23T01:58:12;100376.06;;;17.75;100.00
22872;BME280;11603;44.910;8.630;2023-05-23T02:00:37;100375.78;;;17.78;100.00
22872;BME280;11603;44.910;8.630;2023-05-23T02:03:03;100377.91;;;17.74;100.00
22872;BME280;11603;44.910;8.630;2023-05-23T02:05:29;100382.22;;;17.67;100.00
22872;BME280;11603;44.910;8.630;2023-05-23T02:07:54;100378.22;;;17.62;100.00
22872;BME280;11603;44.910;8.630;2023-05-23T02:10:21;100381.06;;;17.60;100.00
22872;BME280;11603;44.910;8.630;2023-05-23T02:12:47;100382.47;;;17.55;100.00
22872;BME280;11603;44.910;8.630;2023-05-23T02:15:12;100382.19;;;17.58;100.00
22872;BME280;11603;44.910;8.630;2023-05-23T02:17:38;100383.06;;;17.58;100.00
22872;BME280;11603;44.910;8.630;2023-05-23T02:20:05;100382.19;;;17.58;100.00
22872;BME280;11603;44.910;8.630;2023-05-23T02:22:30;100383.88;;;17.59;100.00
22872;BME280;11603;44.910;8.630;2023-05-23T02:24:56;100381.47;;;17.56;100.00
22872;BME280;11603;44.910;8.630;2023-05-23T02:27:21;100385.34;;;17.53;100.00
22872;BME280;11603;44.910;8.630;2023-05-23T02:29:47;100377.63;;;17.49;100.00
22872;BME280;11603;44.910;8.630;2023-05-23T02:32:12;100384.34;;;17.45;100.00
22872;BME280;11603;44.910;8.630;2023-05-23T02:34:38;100382.63;;;17.44;100.00
22872;BME280;11603;44.910;8.630;2023-05-23T02:37:05;100385.34;;;17.44;100.00
22872;BME280;11603;44.910;8.630;2023-05-23T02:39:30;100389.31;;;17.40;100.00
22872;BME280;11603;44.910;8.630;2023-05-23T02:41:56;100381.78;;;17.43;100.00
22872;BME280;11603;44.910;8.630;2023-05-23T02:44:21;100381.09;;;17.41;100.00
22872;BME280;11603;44.910;8.630;2023-05-23T02:46:47;100380.53;;;17.38;100.00
22872;BME280;11603;44.910;8.630;2023-05-23T02:49:12;100380.38;;;17.29;100.00
22872;BME280;11603;44.910;8.630;2023-05-23T02:51:39;100383.22;;;17.28;100.00
22872;BME280;11603;44.910;8.630;2023-05-23T02:54:04;100385.06;;;17.27;100.00
22872;BME280;11603;44.910;8.630;2023-05-23T02:56:33;100388.19;;;17.23;100.00
22872;BME280;11603;44.910;8.630;2023-05-23T02:58:59;100384.50;;;17.14;100.00
22872;BME280;11603;44.910;8.630;2023-05-23T03:01:24;100388.50;;;17.10;100.00
22872;BME280;11603;44.910;8.630;2023-05-23T03:03:50;100390.47;;;17.08;100.00
22872;BME280;11603;44.910;8.630;2023-05-23T03:06:15;100382.09;;;17.11;100.00
22872;BME280;11603;44.910;8.630;2023-05-23T03:08:42;100383.78;;;17.12;100.00
22872;BME280;11603;44.910;8.630;2023-05-23T03:11:08;100385.06;;;17.08;100.00
22872;BME280;11603;44.910;8.630;2023-05-23T03:13:34;100390.91;;;17.04;100.00
22872;BME280;11603;44.910;8.630;2023-05-23T03:16:00;100389.75;;;16.97;100.00
22872;BME280;11603;44.910;8.630;2023-05-23T03:18:26;100388.47;;;16.91;100.00
22872;BME280;11603;44.910;8.630;2023-05-23T03:20:51;100387.47;;;16.92;100.00
22872;BME280;11603;44.910;8.630;2023-05-23T03:23:21;100391.59;;;16.96;100.00
22872;BME280;11603;44.910;8.630;2023-05-23T03:25:46;100393.31;;;16.97;100.00
22872;BME280;11603;44.910;8.630;2023-05-23T03:28:12;100397.72;;;16.98;100.00
22872;BME280;11603;44.910;8.630;2023-05-23T03:30:37;100393.31;;;16.97;100.00
22872;BME280;11603;44.910;8.630;2023-05-23T03:33:03;100389.06;;;16.94;100.00
22872;BME280;11603;44.910;8.630;2023-05-23T03:35:29;100397.72;;;16.88;100.00
22872;BME280;11603;44.910;8.630;2023-05-23T03:37:54;100399.84;;;16.85;100.00
22872;BME280;11603;44.910;8.630;2023-05-23T03:40:20;100400.84;;;16.84;100.00
22872;BME280;11603;44.910;8.630;2023-05-23T03:42:47;100401.53;;;16.86;100.00
22872;BME280;11603;44.910;8.630;2023-05-23T03:45:14;100396.44;;;16.83;100.00
22872;BME280;11603;44.910;8.630;2023-05-23T03:47:40;100398.28;;;16.82;100.00
22872;BME280;11603;44.910;8.630;2023-05-23T03:50:07;100400.13;;;16.82;100.00
22872;BME280;11603;44.910;8.630;2023-05-23T03:52:34;100401.84;;;16.83;100.00
22872;BME280;11603;44.910;8.630;2023-05-23T03:55:00;100408.22;;;16.82;100.00
22872;BME280;11603;44.910;8.630;2023-05-23T03:57:25;100402.81;;;16.72;100.00
22872;BME280;11603;44.910;8.630;2023-05-23T03:59:51;100409.19;;;16.71;100.00
22872;BME280;11603;44.910;8.630;2023-05-23T04:02:18;100415.16;;;16.75;100.00
22872;BME280;11603;44.910;8.630;2023-05-23T04:04:43;100403.53;;;16.74;100.00
22872;BME280;11603;44.910;8.630;2023-05-23T04:07:09;100402.81;;;16.82;100.00
22872;BME280;11603;44.910;8.630;2023-05-23T04:09:36;100412.09;;;16.89;100.00
22872;BME280;11603;44.910;8.630;2023-05-23T04:12:04;100407.97;;;16.94;100.00
22872;BME280;11603;44.910;8.630;2023-05-23T04:14:30;100401.28;;;16.99;100.00
22872;BME280;11603;44.910;8.630;2023-05-23T04:16:57;100398.72;;;17.07;100.00
22872;BME280;11603;44.910;8.630;2023-05-23T04:19:25;100393.91;;;17.10;100.00
22872;BME280;11603;44.910;8.630;2023-05-23T04:21:51;100396.03;;;17.16;100.00
22872;BME280;11603;44.910;8.630;2023-05-23T04:24:17;100407.28;;;17.21;100.00
22872;BME280;11603;44.910;8.630;2023-05-23T04:26:42;100403.56;;;17.22;100.00
22872;BME280;11603;44.910;8.630;2023-05-23T04:29:08;100411.25;;;17.27;100.00
22872;BME280;11603;44.910;8.630;2023-05-23T04:31:36;100406.00;;;17.25;100.00
22872;BME280;11603;44.910;8.630;2023-05-23T04:34:02;100415.09;;;17.34;100.00
22872;BME280;11603;44.910;8.630;2023-05-23T04:36:30;100411.41;;;17.35;100.00
22872;BME280;11603;44.910;8.630;2023-05-23T04:38:55;100408.97;;;17.42;100.00
22872;BME280;11603;44.910;8.630;2023-05-23T04:41:21;100401.97;;;17.49;100.00
22872;BME280;11603;44.910;8.630;2023-05-23T04:44:06;100408.38;;;17.57;100.00
22872;BME280;11603;44.910;8.630;2023-05-23T04:47:06;100414.09;;;17.64;100.00
22872;BME280;11603;44.910;8.630;2023-05-23T04:49:52;100414.53;;;17.69;100.00
22872;BME280;11603;44.910;8.630;2023-05-23T04:52:18;100413.69;;;17.68;100.00
22872;BME280;11603;44.910;8.630;2023-05-23T04:54:44;100417.78;;;17.72;100.00
22872;BME280;11603;44.910;8.630;2023-05-23T04:57:11;100411.38;;;17.83;100.00
22872;BME280;11603;44.910;8.630;2023-05-23T04:59:37;100414.59;;;17.96;100.00
22872;BME280;11603;44.910;8.630;2023-05-23T05:02:03;100409.44;;;18.03;100.00
22872;BME280;11603;44.910;8.630;2023-05-23T05:04:30;100410.72;;;18.08;100.00
22872;BME280;11603;44.910;8.630;2023-05-23T05:06:55;100408.16;;;18.07;100.00
22872;BME280;11603;44.910;8.630;2023-05-23T05:09:22;100412.25;;;18.11;100.00
22872;BME280;11603;44.910;8.630;2023-05-23T05:11:48;100414.66;;;18.24;100.00
22872;BME280;11603;44.910;8.630;2023-05-23T05:14:14;100407.47;;;18.32;100.00
22872;BME280;11603;44.910;8.630;2023-05-23T05:16:40;100404.81;;;18.23;100.00
22872;BME280;11603;44.910;8.630;2023-05-23T05:19:07;100405.22;;;18.28;100.00
22872;BME280;11603;44.910;8.630;2023-05-23T05:21:32;100412.66;;;18.26;100.00
22872;BME280;11603;44.910;8.630;2023-05-23T05:23:58;100410.91;;;18.34;100.00
22872;BME280;11603;44.910;8.630;2023-05-23T05:26:25;100412.06;;;18.59;100.00
22872;BME280;11603;44.910;8.630;2023-05-23T05:28:52;100400.97;;;18.80;100.00
22872;BME280;11603;44.910;8.630;2023-05-23T05:31:19;100400.13;;;18.79;100.00
22872;BME280;11603;44.910;8.630;2023-05-23T05:33:45;100409.81;;;18.82;100.00
22872;BME280;11603;44.910;8.630;2023-05-23T05:36:13;100411.75;;;18.72;100.00
22872;BME280;11603;44.910;8.630;2023-05-23T05:38:39;100407.31;;;18.71;100.00
22872;BME280;11603;44.910;8.630;2023-05-23T05:41:05;100402.91;;;18.70;100.00
22872;BME280;11603;44.910;8.630;2023-05-23T05:43:34;100413.94;;;18.58;100.00
22872;BME280;11603;44.910;8.630;2023-05-23T05:46:03;100414.25;;;18.55;100.00
22872;BME280;11603;44.910;8.630;2023-05-23T05:48:29;100413.44;;;18.73;100.00
22872;BME280;11603;44.910;8.630;2023-05-23T05:50:59;100420.81;;;18.80;100.00
22872;BME280;11603;44.910;8.630;2023-05-23T05:53:25;100422.19;;;18.84;100.00
22872;BME280;11603;44.910;8.630;2023-05-23T05:55:53;100406.31;;;18.89;100.00
22872;BME280;11603;44.910;8.630;2023-05-23T05:58:19;100411.84;;;18.97;100.00
22872;BME280;11603;44.910;8.630;2023-05-23T06:00:51;100410.91;;;19.07;100.00
22872;BME280;11603;44.910;8.630;2023-05-23T06:03:20;100415.72;;;19.13;100.00
22872;BME280;11603;44.910;8.630;2023-05-23T06:05:51;100408.44;;;19.13;100.00
22872;BME280;11603;44.910;8.630;2023-05-23T06:08:17;100416.13;;;19.18;100.00
22872;BME280;11603;44.910;8.630;2023-05-23T06:10:42;100412.94;;;19.22;100.00
22872;BME280;11603;44.910;8.630;2023-05-23T06:13:09;100409.31;;;19.14;100.00
22872;BME280;11603;44.910;8.630;2023-05-23T06:15:36;100404.41;;;19.17;100.00
22872;BME280;11603;44.910;8.630;2023-05-23T06:18:01;100406.28;;;19.17;100.00
22872;BME280;11603;44.910;8.630;2023-05-23T06:20:28;100410.69;;;19.18;100.00
22872;BME280;11603;44.910;8.630;2023-05-23T06:22:57;100406.38;;;19.25;100.00
22872;BME280;11603;44.910;8.630;2023-05-23T06:25:24;100411.84;;;19.33;100.00
22872;BME280;11603;44.910;8.630;2023-05-23T06:27:50;100410.91;;;19.42;100.00
22872;BME280;11603;44.910;8.630;2023-05-23T06:30:16;100413.88;;;19.49;100.00
22872;BME280;11603;44.910;8.630;2023-05-23T06:32:41;100411.19;;;19.31;100.00
22872;BME280;11603;44.910;8.630;2023-05-23T06:35:07;100425.31;;;19.42;100.00
22872;BME280;11603;44.910;8.630;2023-05-23T06:37:33;100415.44;;;19.51;100.00
22872;BME280;11603;44.910;8.630;2023-05-23T06:39:59;100417.97;;;19.53;100.00
22872;BME280;11603;44.910;8.630;2023-05-23T06:42:26;100416.22;;;19.61;100.00
22872;BME280;11603;44.910;8.630;2023-05-23T06:45:05;100419.97;;;19.68;100.00
22872;BME280;11603;44.910;8.630;2023-05-23T06:47:31;100423.28;;;19.80;100.00
22872;BME280;11603;44.910;8.630;2023-05-23T06:49:56;100418.78;;;19.88;100.00
22872;BME280;11603;44.910;8.630;2023-05-23T06:52:22;100415.41;;;19.69;100.00
22872;BME280;11603;44.910;8.630;2023-05-23T06:54:47;100411.69;;;19.70;100.00
22872;BME280;11603;44.910;8.630;2023-05-23T06:57:13;100413.63;;;19.77;100.00
22872;BME280;11603;44.910;8.630;2023-05-23T06:59:39;100407.16;;;19.78;100.00
22872;BME280;11603;44.910;8.630;2023-05-23T07:02:05;100414.63;;;19.76;100.00
22872;BME280;11603;44.910;8.630;2023-05-23T07:04:30;100415.22;;;19.88;100.00
22872;BME280;11603;44.910;8.630;2023-05-23T07:07:00;100409.91;;;20.04;100.00
22872;BME280;11603;44.910;8.630;2023-05-23T07:09:27;100408.06;;;20.13;100.00
22872;BME280;11603;44.910;8.630;2023-05-23T07:12:02;100416.44;;;20.19;100.00
22872;BME280;11603;44.910;8.630;2023-05-23T07:14:28;100408.78;;;20.15;100.00
22872;BME280;11603;44.910;8.630;2023-05-23T07:16:53;100413.72;;;20.19;100.00
22872;BME280;11603;44.910;8.630;2023-05-23T07:19:21;100411.88;;;20.28;100.00
22872;BME280;11603;44.910;8.630;2023-05-23T07:21:49;100412.22;;;20.25;100.00
22872;BME280;11603;44.910;8.630;2023-05-23T07:24:16;100412.22;;;20.25;100.00
22872;BME280;11603;44.910;8.630;2023-05-23T07:26:42;100407.00;;;20.32;100.00
22872;BME280;11603;44.910;8.630;2023-05-23T07:29:08;100412.50;;;20.40;100.00
22872;BME280;11603;44.910;8.630;2023-05-23T07:31:33;100414.03;;;20.42;100.00
22872;BME280;11603;44.910;8.630;2023-05-23T07:34:00;100422.22;;;20.50;100.00
22872;BME280;11603;44.910;8.630;2023-05-23T07:36:36;100405.09;;;20.58;100.00
22872;BME280;11603;44.910;8.630;2023-05-23T07:39:07;100401.56;;;20.65;100.00
22872;BME280;11603;44.910;8.630;2023-05-23T07:41:33;100414.00;;;20.76;100.00
22872;BME280;11603;44.910;8.630;2023-05-23T07:43:58;100415.88;;;20.76;100.00
22872;BME280;11603;44.910;8.630;2023-05-23T07:46:24;100404.50;;;20.80;100.00
22872;BME280;11603;44.910;8.630;2023-05-23T07:48:49;100397.91;;;20.91;100.00
22872;BME280;11603;44.910;8.630;2023-05-23T07:51:15;100392.97;;;20.94;100.00
22872;BME280;11603;44.910;8.630;2023-05-23T07:53:43;100394.34;;;21.06;100.00
22872;BME280;11603;44.910;8.630;2023-05-23T07:56:11;100391.13;;;21.11;100.00
22872;BME280;11603;44.910;8.630;2023-05-23T07:58:39;100387.09;;;21.23;100.00
22872;BME280;11603;44.910;8.630;2023-05-23T08:01:06;100390.84;;;21.38;100.00
22872;BME280;11603;44.910;8.630;2023-05-23T08:03:57;100385.56;;;21.37;100.00
22872;BME280;11603;44.910;8.630;2023-05-23T08:06:29;100379.81;;;21.40;100.00
22872;BME280;11603;44.910;8.630;2023-05-23T08:09:00;100377.44;;;21.45;100.00
22872;BME280;11603;44.910;8.630;2023-05-23T08:11:26;100384.41;;;21.55;100.00
22872;BME280;11603;44.910;8.630;2023-05-23T08:13:56;100376.91;;;21.66;100.00
22872;BME280;11603;44.910;8.630;2023-05-23T08:16:43;100380.09;;;21.77;100.00
22872;BME280;11603;44.910;8.630;2023-05-23T08:19:13;100382.81;;;21.77;100.00
22872;BME280;11603;44.910;8.630;2023-05-23T08:21:38;100381.28;;;21.91;100.00
22872;BME280;11603;44.910;8.630;2023-05-23T08:24:04;100377.22;;;22.03;100.00
22872;BME280;11603;44.910;8.630;2023-05-23T08:26:30;100376.00;;;22.14;100.00
22872;BME280;11603;44.910;8.630;2023-05-23T08:29:01;100376.97;;;22.21;100.00
22872;BME280;11603;44.910;8.630;2023-05-23T08:31:27;100370.47;;;22.30;100.00
22872;BME280;11603;44.910;8.630;2023-05-23T08:33:53;100377.81;;;22.29;100.00
22872;BME280;11603;44.910;8.630;2023-05-23T08:36:19;100373.00;;;22.39;100.00
22872;BME280;11603;44.910;8.630;2023-05-23T08:38:46;100373.47;;;22.43;100.00
22872;BME280;11603;44.910;8.630;2023-05-23T08:41:19;100372.47;;;22.44;100.00
22872;BME280;11603;44.910;8.630;2023-05-23T08:43:47;100374.59;;;22.57;100.00
22872;BME280;11603;44.910;8.630;2023-05-23T08:46:21;100367.28;;;22.57;100.00
22872;BME280;11603;44.910;8.630;2023-05-23T08:48:53;100367.78;;;22.61;100.00
22872;BME280;11603;44.910;8.630;2023-05-23T08:51:25;100365.19;;;22.67;100.00
22872;BME280;11603;44.910;8.630;2023-05-23T08:53:51;100365.66;;;22.79;100.00
22872;BME280;11603;44.910;8.630;2023-05-23T08:56:19;100363.84;;;22.94;100.00
22872;BME280;11603;44.910;8.630;2023-05-23T08:58:47;100367.19;;;23.04;100.00
22872;BME280;11603;44.910;8.630;2023-05-23T09:01:16;100365.59;;;23.18;100.00
22872;BME280;11603;44.910;8.630;2023-05-23T09:03:44;100364.53;;;23.42;100.00
22872;BME280;11603;44.910;8.630;2023-05-23T09:06:19;100363.75;;;23.56;100.00
22872;BME280;11603;44.910;8.630;2023-05-23T09:08:47;100350.88;;;23.64;100.00
22872;BME280;11603;44.910;8.630;2023-05-23T09:11:15;100354.94;;;23.69;100.00
22872;BME280;11603;44.910;8.630;2023-05-23T09:13:43;100356.34;;;23.64;100.00
22872;BME280;11603;44.910;8.630;2023-05-23T09:16:11;100354.53;;;23.72;100.00
22872;BME280;11603;44.910;8.630;2023-05-23T09:18:43;100346.28;;;23.80;100.00
22872;BME280;11603;44.910;8.630;2023-05-23T09:21:12;100349.94;;;23.87;100.00
22872;BME280;11603;44.910;8.630;2023-05-23T09:23:47;100350.44;;;23.90;100.00
22872;BME280;11603;44.910;8.630;2023-05-23T09:26:13;100338.66;;;24.04;100.00
22872;BME280;11603;44.910;8.630;2023-05-23T09:28:41;100341.94;;;24.15;100.00
22872;BME280;11603;44.910;8.630;2023-05-23T09:31:07;100344.91;;;24.28;100.00
22872;BME280;11603;44.910;8.630;2023-05-23T09:33:34;100339.44;;;24.42;100.00
22872;BME280;11603;44.910;8.630;2023-05-23T09:36:03;100340.06;;;24.59;100.00
22872;BME280;11603;44.910;8.630;2023-05-23T09:38:28;100347.38;;;24.73;100.00
22872;BME280;11603;44.910;8.630;2023-05-23T09:40:54;100343.09;;;24.85;100.00
22872;BME280;11603;44.910;8.630;2023-05-23T09:43:22;100336.94;;;24.98;100.00
22872;BME280;11603;44.910;8.630;2023-05-23T09:45:52;100341.91;;;25.09;100.00
22872;BME280;11603;44.910;8.630;2023-05-23T09:48:18;100335.38;;;25.10;100.00
22872;BME280;11603;44.910;8.630;2023-05-23T09:50:44;100339.59;;;25.13;100.00
22872;BME280;11603;44.910;8.630;2023-05-23T09:53:10;100334.28;;;25.26;100.00
22872;BME280;11603;44.910;8.630;2023-05-23T09:55:35;100332.13;;;25.43;100.00
22872;BME280;11603;44.910;8.630;2023-05-23T09:58:02;100325.03;;;25.55;100.00
22872;BME280;11603;44.910;8.630;2023-05-23T10:00:28;100327.88;;;25.61;100.00
22872;BME280;11603;44.910;8.630;2023-05-23T10:03:10;100327.50;;;25.43;100.00
22872;BME280;11603;44.910;8.630;2023-05-23T10:05:46;100328.53;;;25.63;100.00
22872;BME280;11603;44.910;8.630;2023-05-23T10:08:17;100328.91;;;25.88;100.00
22872;BME280;11603;44.910;8.630;2023-05-23T10:13:21;100325.22;;;26.09;100.00
22872;BME280;11603;44.910;8.630;2023-05-23T10:15:50;100322.13;;;26.19;100.00
22872;BME280;11603;44.910;8.630;2023-05-23T10:18:25;100324.75;;;26.27;100.00
22872;BME280;11603;44.910;8.630;2023-05-23T10:20:59;100318.44;;;26.39;100.00
22872;BME280;11603;44.910;8.630;2023-05-23T10:23:29;100312.78;;;26.41;100.00
22872;BME280;11603;44.910;8.630;2023-05-23T10:25:56;100298.84;;;26.42;100.00
22872;BME280;11603;44.910;8.630;2023-05-23T10:28:21;100311.97;;;26.47;100.00
22872;BME280;11603;44.910;8.630;2023-05-23T10:30:47;100308.59;;;26.51;100.00
22872;BME280;11603;44.910;8.630;2023-05-23T10:33:13;100299.53;;;26.58;100.00
22872;BME280;11603;44.910;8.630;2023-05-23T10:44:00;100291.41;;;26.90;100.00
22872;BME280;11603;44.910;8.630;2023-05-23T10:46:48;100288.50;;;27.18;100.00
22872;BME280;11603;44.910;8.630;2023-05-23T10:49:15;100276.91;;;27.16;92.69
22872;BME280;11603;44.910;8.630;2023-05-23T10:51:41;100283.22;;;27.23;78.17
22872;BME280;11603;44.910;8.630;2023-05-23T10:54:10;100277.28;;;27.33;72.37
22872;BME280;11603;44.910;8.630;2023-05-23T10:56:37;100275.19;;;27.09;68.79
22872;BME280;11603;44.910;8.630;2023-05-23T10:59:04;100277.50;;;26.98;69.37
22872;BME280;11603;44.910;8.630;2023-05-23T11:01:30;100282.16;;;27.05;68.73
22872;BME280;11603;44.910;8.630;2023-05-23T11:03:56;100279.41;;;27.24;68.20
22872;BME280;11603;44.910;8.630;2023-05-23T11:06:42;100279.41;;;27.11;66.70
22872;BME280;11603;44.910;8.630;2023-05-23T11:12:01;100273.69;;;27.32;58.85
22872;BME280;11603;44.910;8.630;2023-05-23T11:19:37;100271.38;;;27.75;56.02
22872;BME280;11603;44.910;8.630;2023-05-23T11:22:03;100272.63;;;27.79;55.35
22872;BME280;11603;44.910;8.630;2023-05-23T11:24:51;100263.13;;;27.75;56.54
22872;BME280;11603;44.910;8.630;2023-05-23T11:27:34;100263.34;;;27.74;53.64
22872;BME280;11603;44.910;8.630;2023-05-23T11:32:37;100258.22;;;27.91;54.33
22872;BME280;11603;44.910;8.630;2023-05-23T11:35:07;100261.41;;;27.94;54.46
22872;BME280;11603;44.910;8.630;2023-05-23T11:37:35;100251.84;;;28.03;55.69
22872;BME280;11603;44.910;8.630;2023-05-23T11:42:49;100248.63;;;28.06;58.05
22872;BME280;11603;44.910;8.630;2023-05-23T11:45:18;100246.94;;;28.18;58.81
22872;BME280;11603;44.910;8.630;2023-05-23T11:47:44;100240.41;;;28.13;57.81
22872;BME280;11603;44.910;8.630;2023-05-23T11:50:09;100239.97;;;28.09;56.58
22872;BME280;11603;44.910;8.630;2023-05-23T11:52:35;100238.03;;;28.23;55.44
22872;BME280;11603;44.910;8.630;2023-05-23T11:55:00;100234.31;;;28.42;55.20
22872;BME280;11603;44.910;8.630;2023-05-23T11:57:26;100232.69;;;28.35;54.36
22872;BME280;11603;44.910;8.630;2023-05-23T11:59:52;100226.47;;;28.52;54.26
22872;BME280;11603;44.910;8.630;2023-05-23T12:02:20;100225.69;;;28.39;58.94
22872;BME280;11603;44.910;8.630;2023-05-23T12:04:45;100223.38;;;28.36;59.98
22872;BME280;11603;44.910;8.630;2023-05-23T12:07:10;100217.91;;;28.29;59.91
22872;BME280;11603;44.910;8.630;2023-05-23T12:09:42;100218.09;;;28.65;56.43
22872;BME280;11603;44.910;8.630;2023-05-23T12:12:07;100221.13;;;28.57;53.95
22872;BME280;11603;44.910;8.630;2023-05-23T12:14:33;100210.06;;;28.64;50.99
22872;BME280;11603;44.910;8.630;2023-05-23T12:16:58;100202.19;;;28.74;50.66
22872;BME280;11603;44.910;8.630;2023-05-23T12:19:24;100201.34;;;28.74;50.60
22872;BME280;11603;44.910;8.630;2023-05-23T12:21:49;100195.28;;;28.90;49.60
22872;BME280;11603;44.910;8.630;2023-05-23T12:26:52;100192.47;;;29.21;54.12
22872;BME280;11603;44.910;8.630;2023-05-23T12:29:31;100187.44;;;29.18;52.69
22872;BME280;11603;44.910;8.630;2023-05-23T12:31:59;100183.72;;;29.31;53.27
22872;BME280;11603;44.910;8.630;2023-05-23T12:34:25;100177.41;;;29.48;52.83
22872;BME280;11603;44.910;8.630;2023-05-23T12:36:56;100178.03;;;29.51;51.20
22872;BME280;11603;44.910;8.630;2023-05-23T12:39:25;100164.53;;;29.42;50.47
22872;BME280;11603;44.910;8.630;2023-05-23T12:41:51;100165.53;;;29.48;49.85
22872;BME280;11603;44.910;8.630;2023-05-23T12:44:17;100162.63;;;29.61;50.26
22872;BME280;11603;44.910;8.630;2023-05-23T12:46:43;100163.25;;;29.45;50.97
22872;BME280;11603;44.910;8.630;2023-05-23T12:49:09;100154.75;;;29.46;50.89
22872;BME280;11603;44.910;8.630;2023-05-23T12:51:35;100160.09;;;29.60;50.56
22872;BME280;11603;44.910;8.630;2023-05-23T12:54:01;100159.53;;;29.33;46.27
22872;BME280;11603;44.910;8.630;2023-05-23T12:56:26;100158.78;;;29.44;48.46
22872;BME280;11603;44.910;8.630;2023-05-23T12:58:52;100156.72;;;29.39;47.26
22872;BME280;11603;44.910;8.630;2023-05-23T13:01:21;100154.03;;;29.33;45.71
22872;BME280;11603;44.910;8.630;2023-05-23T13:03:47;100146.53;;;29.58;46.48
22872;BME280;11603;44.910;8.630;2023-05-23T13:06:12;100143.09;;;29.63;46.14
22872;BME280;11603;44.910;8.630;2023-05-23T13:08:37;100145.06;;;29.74;44.85
22872;BME280;11603;44.910;8.630;2023-05-23T13:11:07;100134.91;;;29.74;45.23
22872;BME280;11603;44.910;8.630;2023-05-23T13:13:33;100144.72;;;29.70;45.05
22872;BME280;11603;44.910;8.630;2023-05-23T13:15:58;100142.94;;;29.94;45.20